Time;durP1;ratioP1;P1;durP2;ratioP2;P2;SDS_P1;SDS_P2;PMS_P1;PMS_P2;Temp;Humidity;BMP_temperature;BMP_pressure;BME280_temperature;BME280_humidity;BME280_pressure;Samples;Min_cycle;Max_cycle;Signal;HPM_P1;HPM_P2
2021/01/01 00:00:15;;;;;;;50.60;26.92;;;1.20;99.90;;;;;;5058939;28;20032;-61
2021/01/01 00:02:42;;;;;;;58.58;27.20;;;1.30;99.90;;;;;;5067393;28;20021;-59
2021/01/01 00:05:08;;;;;;;48.47;23.58;;;1.40;99.90;;;;;;5064074;28;20028;-60
2021/01/01 00:07:35;;;;;;;48.83;26.67;;;1.30;99.90;;;;;;5059359;28;20032;-60
2021/01/01 00:10:01;;;;;;;72.53;25.65;;;1.30;99.90;;;;;;5070515;28;20339;-59
2021/01/01 00:12:26;;;;;;;60.30;28.65;;;1.30;99.90;;;;;;5063736;28;20028;-60
2021/01/01 00:14:52;;;;;;;47.67;25.23;;;1.30;99.90;;;;;;5069621;28;20115;-61
2021/01/01 00:17:18;;;;;;;67.45;25.08;;;1.30;99.90;;;;;;5067669;28;20024;-61
2021/01/01 00:19:44;;;;;;;89.20;28.75;;;1.30;99.90;;;;;;5070223;28;20561;-58
2021/01/01 00:22:11;;;;;;;70.15;33.55;;;1.30;99.90;;;;;;5057793;28;20067;-60
2021/01/01 00:24:37;;;;;;;67.78;28.60;;;1.20;99.90;;;;;;5051183;28;20458;-60
2021/01/01 00:27:03;;;;;;;59.35;29.25;;;1.20;99.90;;;;;;5051802;28;20038;-59
2021/01/01 00:29:28;;;;;;;68.82;29.10;;;1.30;99.90;;;;;;5050731;28;20143;-60
2021/01/01 00:31:54;;;;;;;60.22;28.95;;;1.30;99.90;;;;;;5054918;28;20021;-60
2021/01/01 00:34:20;;;;;;;67.50;30.48;;;1.30;99.90;;;;;;5050836;28;20033;-58
2021/01/01 00:36:45;;;;;;;97.82;40.95;;;1.20;99.90;;;;;;5058924;28;20373;-60
2021/01/01 00:39:11;;;;;;;120.75;57.97;;;1.20;99.90;;;;;;5070712;28;20043;-59
2021/01/01 00:41:37;;;;;;;81.55;35.95;;;1.20;99.90;;;;;;5062317;28;20028;-60
2021/01/01 00:44:03;;;;;;;72.75;31.27;;;1.20;99.90;;;;;;5051112;28;20025;-59
2021/01/01 00:46:31;;;;;;;61.28;33.83;;;1.20;99.90;;;;;;5055942;28;20070;-60
2021/01/01 00:48:58;;;;;;;88.70;40.53;;;1.20;99.90;;;;;;5071176;28;20024;-60
2021/01/01 00:51:31;;;;;;;78.25;33.33;;;1.20;99.90;;;;;;5068351;28;20024;-61
2021/01/01 00:53:58;;;;;;;64.15;34.08;;;1.30;99.90;;;;;;5059260;28;20116;-59
2021/01/01 00:56:25;;;;;;;73.43;28.98;;;1.30;99.90;;;;;;5059630;28;20378;-59
2021/01/01 00:58:52;;;;;;;88.65;31.27;;;1.20;99.90;;;;;;5065053;28;20025;-60
2021/01/01 01:01:24;;;;;;;62.80;28.90;;;1.20;99.90;;;;;;5053521;28;20028;-61
2021/01/01 01:03:54;;;;;;;68.63;27.83;;;1.20;99.90;;;;;;5068770;28;20075;-60
2021/01/01 01:06:21;;;;;;;68.45;29.73;;;1.20;99.90;;;;;;5055972;28;20016;-60
2021/01/01 01:08:47;;;;;;;59.15;27.77;;;1.20;99.90;;;;;;5068356;28;20131;-60
2021/01/01 01:11:13;;;;;;;59.63;26.92;;;1.20;99.90;;;;;;5050482;28;20475;-60
2021/01/01 01:13:39;;;;;;;57.47;27.27;;;1.20;99.90;;;;;;5051683;28;20371;-59
2021/01/01 01:16:05;;;;;;;56.78;29.90;;;1.10;99.90;;;;;;5050620;28;20048;-60
2021/01/01 01:18:31;;;;;;;59.50;29.92;;;1.10;99.90;;;;;;5069442;28;20025;-60
2021/01/01 01:20:57;;;;;;;70.78;29.60;;;1.10;99.90;;;;;;5072229;28;20020;-60
2021/01/01 01:23:23;;;;;;;50.38;27.05;;;1.10;99.90;;;;;;5058225;28;20386;-61
2021/01/01 01:25:49;;;;;;;86.15;26.35;;;1.10;99.90;;;;;;5054128;28;20024;-59
2021/01/01 01:28:15;;;;;;;55.80;26.77;;;1.10;99.90;;;;;;5069751;28;20073;-59
2021/01/01 01:30:41;;;;;;;63.92;27.83;;;1.10;99.90;;;;;;5074414;28;20029;-59
2021/01/01 01:33:08;;;;;;;63.53;32.33;;;1.00;99.90;;;;;;5072993;28;20040;-59
2021/01/01 01:35:34;;;;;;;94.57;36.35;;;1.10;99.90;;;;;;5074526;28;20032;-59
2021/01/01 01:38:00;;;;;;;81.63;27.50;;;1.10;99.90;;;;;;5073402;28;20043;-61
2021/01/01 01:40:26;;;;;;;60.97;25.75;;;1.10;99.90;;;;;;5062886;28;20051;-60
2021/01/01 01:42:52;;;;;;;62.08;25.08;;;1.00;99.90;;;;;;5062038;28;20142;-59
2021/01/01 01:45:18;;;;;;;70.97;25.42;;;1.00;99.90;;;;;;5074095;28;20028;-60
2021/01/01 01:47:44;;;;;;;55.55;25.45;;;0.90;99.90;;;;;;5073489;28;20381;-59
2021/01/01 01:50:11;;;;;;;56.28;25.95;;;1.00;99.90;;;;;;5068532;28;20031;-59
2021/01/01 01:52:38;;;;;;;69.30;28.10;;;0.90;99.90;;;;;;5059852;28;20039;-60
2021/01/01 01:55:05;;;;;;;79.00;34.03;;;0.90;99.90;;;;;;5053792;28;20060;-59
2021/01/01 01:57:32;;;;;;;75.22;28.48;;;0.80;99.90;;;;;;5054648;28;20442;-60
2021/01/01 02:00:26;;;;;;;79.03;30.40;;;0.90;99.90;;;;;;5063168;28;20063;-60
2021/01/01 02:02:55;;;;;;;75.32;35.10;;;0.90;99.90;;;;;;5070421;28;20029;-58
2021/01/01 02:05:21;;;;;;;105.63;35.22;;;0.90;99.90;;;;;;5073642;28;20420;-60
2021/01/01 02:07:47;;;;;;;82.07;35.38;;;0.90;99.90;;;;;;5071845;28;20028;-58
2021/01/01 02:10:13;;;;;;;58.05;26.13;;;1.00;99.90;;;;;;5052295;28;20520;-60
2021/01/01 02:12:40;;;;;;;79.07;24.48;;;1.00;99.90;;;;;;5056770;28;20037;-60
2021/01/01 02:15:06;;;;;;;87.15;27.45;;;0.90;99.90;;;;;;5053265;28;20033;-59
2021/01/01 02:17:32;;;;;;;87.70;24.65;;;1.00;99.90;;;;;;5069214;28;20132;-60
2021/01/01 02:20:11;;;;;;;72.50;25.13;;;0.90;99.90;;;;;;5073334;28;20522;-60
2021/01/01 02:22:37;;;;;;;75.93;23.77;;;0.90;99.90;;;;;;5057166;28;20029;-58
2021/01/01 02:25:10;;;;;;;72.32;24.15;;;0.90;99.90;;;;;;5053214;28;20036;-59
2021/01/01 02:27:39;;;;;;;61.50;23.50;;;0.90;99.90;;;;;;5061914;28;20017;-58
2021/01/01 02:30:06;;;;;;;65.90;23.10;;;0.90;99.90;;;;;;5052274;28;20025;-58
2021/01/01 02:32:33;;;;;;;56.88;24.50;;;0.80;99.90;;;;;;5069556;28;20040;-60
2021/01/01 02:34:59;;;;;;;61.15;24.40;;;0.80;99.90;;;;;;5072740;28;20036;-60
2021/01/01 02:37:25;;;;;;;49.10;23.52;;;0.70;99.90;;;;;;5072980;28;20059;-60
2021/01/01 02:39:51;;;;;;;53.90;24.55;;;0.80;99.90;;;;;;5067594;28;20057;-59
2021/01/01 02:42:17;;;;;;;49.58;25.65;;;0.70;99.90;;;;;;5065702;28;20815;-59
2021/01/01 02:44:43;;;;;;;59.22;23.80;;;0.80;99.90;;;;;;5073263;28;20020;-58
2021/01/01 02:47:09;;;;;;;67.65;24.83;;;0.80;99.90;;;;;;5061167;28;20049;-59
2021/01/01 02:49:35;;;;;;;57.20;23.05;;;0.80;99.90;;;;;;5053758;28;20036;-58
2021/01/01 02:52:02;;;;;;;75.75;24.75;;;0.80;99.90;;;;;;5061154;28;20020;-59
2021/01/01 02:54:28;;;;;;;54.38;24.45;;;0.80;99.90;;;;;;5053197;28;20410;-59
2021/01/01 02:56:54;;;;;;;62.05;24.23;;;0.80;99.90;;;;;;5061735;28;20020;-58
2021/01/01 02:59:20;;;;;;;48.00;22.85;;;0.90;99.90;;;;;;5073161;28;20063;-60
2021/01/01 03:01:46;;;;;;;45.30;24.77;;;0.80;99.90;;;;;;5056591;28;20028;-60
2021/01/01 03:04:12;;;;;;;49.22;23.30;;;0.90;99.90;;;;;;5053377;28;20028;-60
2021/01/01 03:06:38;;;;;;;43.25;23.60;;;0.90;99.90;;;;;;5053066;28;20029;-59
2021/01/01 03:09:04;;;;;;;47.20;24.02;;;0.80;99.90;;;;;;5053287;28;20024;-59
2021/01/01 03:11:30;;;;;;;47.42;23.13;;;0.80;99.90;;;;;;5058251;28;20123;-60
2021/01/01 03:13:56;;;;;;;46.17;24.75;;;0.80;99.90;;;;;;5073104;28;20040;-61
2021/01/01 03:16:22;;;;;;;56.53;25.13;;;0.90;99.90;;;;;;5066693;28;20408;-59
2021/01/01 03:18:48;;;;;;;53.47;24.45;;;0.90;99.90;;;;;;5070059;28;20028;-60
2021/01/01 03:21:13;;;;;;;47.55;24.27;;;0.80;99.90;;;;;;5067853;28;20047;-59
2021/01/01 03:23:39;;;;;;;48.83;23.05;;;0.90;99.90;;;;;;5053044;28;20415;-59
2021/01/01 03:26:05;;;;;;;46.72;24.60;;;0.90;99.90;;;;;;5054328;28;20098;-59
2021/01/01 03:28:31;;;;;;;50.10;23.88;;;0.80;99.90;;;;;;5062954;28;20027;-59
2021/01/01 03:30:56;;;;;;;47.92;24.40;;;0.90;99.90;;;;;;5070667;28;20059;-59
2021/01/01 03:33:22;;;;;;;44.10;22.65;;;0.90;99.90;;;;;;5072539;28;20107;-58
2021/01/01 03:35:48;;;;;;;43.72;23.77;;;0.90;99.90;;;;;;5063918;28;20036;-58
2021/01/01 03:38:14;;;;;;;40.30;22.35;;;0.90;99.90;;;;;;5053701;28;20032;-59
2021/01/01 03:40:40;;;;;;;39.70;22.02;;;0.90;99.90;;;;;;5051861;28;20049;-60
2021/01/01 03:43:05;;;;;;;43.67;23.17;;;0.90;99.90;;;;;;5051166;28;20029;-59
2021/01/01 03:45:31;;;;;;;44.10;22.58;;;1.00;99.90;;;;;;5056168;28;20025;-59
2021/01/01 03:47:57;;;;;;;43.53;22.25;;;1.00;99.90;;;;;;5070589;28;20024;-60
2021/01/01 03:50:23;;;;;;;39.17;21.83;;;1.00;99.90;;;;;;5065616;28;20179;-59
2021/01/01 03:52:49;;;;;;;40.17;22.92;;;1.00;99.90;;;;;;5055172;28;20067;-60
2021/01/01 03:55:15;;;;;;;46.20;22.60;;;1.00;99.90;;;;;;5051304;28;20060;-58
2021/01/01 03:57:40;;;;;;;41.78;22.30;;;1.00;99.90;;;;;;5053434;28;20029;-59
2021/01/01 04:00:09;;;;;;;44.35;24.17;;;1.00;99.90;;;;;;5052433;28;20036;-59
2021/01/01 04:02:35;;;;;;;43.78;24.13;;;0.90;99.90;;;;;;5051771;28;20033;-58
2021/01/01 04:05:00;;;;;;;45.53;23.85;;;0.90;99.90;;;;;;5052187;28;20032;-59
2021/01/01 04:07:26;;;;;;;44.78;25.33;;;0.90;99.90;;;;;;5063878;28;20158;-60
2021/01/01 04:09:52;;;;;;;46.53;24.55;;;0.90;99.90;;;;;;5072074;28;20021;-61
2021/01/01 04:12:18;;;;;;;44.25;24.15;;;0.90;99.90;;;;;;5070505;28;20375;-59
2021/01/01 04:14:44;;;;;;;49.42;26.67;;;1.00;99.90;;;;;;5067227;28;20032;-60
2021/01/01 04:17:10;;;;;;;45.03;26.63;;;0.90;99.90;;;;;;5059734;28;20379;-59
2021/01/01 04:19:36;;;;;;;49.70;26.55;;;0.90;99.90;;;;;;5051768;28;20497;-58
2021/01/01 04:22:02;;;;;;;49.78;26.40;;;0.80;99.90;;;;;;5068602;28;20110;-58
2021/01/01 04:24:27;;;;;;;50.97;28.52;;;0.80;99.90;;;;;;5071662;28;20037;-59
2021/01/01 04:26:53;;;;;;;55.80;28.40;;;0.80;99.90;;;;;;5062391;28;20025;-60
2021/01/01 04:29:18;;;;;;;53.30;30.10;;;0.80;99.90;;;;;;5071834;28;20417;-58
2021/01/01 04:31:44;;;;;;;47.95;29.38;;;0.80;99.90;;;;;;5060930;28;20025;-60
2021/01/01 04:34:10;;;;;;;54.00;31.38;;;0.80;99.90;;;;;;5063922;28;20040;-60
2021/01/01 04:36:36;;;;;;;57.10;29.65;;;0.80;99.90;;;;;;5062097;28;20218;-59
2021/01/01 04:39:06;;;;;;;55.10;28.98;;;0.80;99.90;;;;;;5051810;28;20037;-58
2021/01/01 04:41:39;;;;;;;54.53;29.05;;;0.80;99.90;;;;;;5058268;28;20063;-59
2021/01/01 04:44:06;;;;;;;53.22;30.02;;;0.80;99.90;;;;;;5071855;28;20024;-58
2021/01/01 04:46:32;;;;;;;52.28;28.05;;;0.80;99.90;;;;;;5054404;28;20065;-59
2021/01/01 04:49:00;;;;;;;52.22;28.98;;;0.80;99.90;;;;;;5051453;28;20071;-59
2021/01/01 04:51:27;;;;;;;50.78;27.45;;;0.80;99.90;;;;;;5063931;28;20074;-59
2021/01/01 04:53:55;;;;;;;49.22;28.50;;;0.80;99.90;;;;;;5073233;28;20036;-59
2021/01/01 04:56:21;;;;;;;56.42;31.75;;;0.90;99.90;;;;;;5073507;28;20048;-59
2021/01/01 04:58:47;;;;;;;53.97;28.38;;;0.90;99.90;;;;;;5075618;28;20462;-59
2021/01/01 05:01:13;;;;;;;51.00;29.50;;;0.80;99.90;;;;;;5069803;28;20029;-59
2021/01/01 05:03:39;;;;;;;54.70;29.02;;;0.80;99.90;;;;;;5055359;28;20112;-59
2021/01/01 05:06:05;;;;;;;54.13;28.67;;;0.80;99.90;;;;;;5054829;28;20108;-59
2021/01/01 05:08:32;;;;;;;52.63;28.92;;;0.80;99.90;;;;;;5055196;28;20029;-60
2021/01/01 05:11:06;;;;;;;53.45;30.55;;;0.80;99.90;;;;;;5055671;28;20068;-59
2021/01/01 05:13:32;;;;;;;52.20;27.00;;;0.80;99.90;;;;;;5055188;28;20029;-59
2021/01/01 05:15:59;;;;;;;48.67;27.45;;;0.80;99.90;;;;;;5055206;28;20032;-60
2021/01/01 05:18:27;;;;;;;54.75;28.20;;;0.90;99.90;;;;;;5055017;28;20028;-61
2021/01/01 05:20:58;;;;;;;47.67;25.60;;;0.80;99.90;;;;;;5061334;28;20074;-59
2021/01/01 05:23:28;;;;;;;49.10;26.20;;;0.80;99.90;;;;;;5055171;28;20021;-59
2021/01/01 05:26:14;;;;;;;51.00;27.73;;;0.80;99.90;;;;;;5054545;28;20037;-60
2021/01/01 05:28:49;;;;;;;46.10;25.40;;;0.80;99.90;;;;;;5055020;28;20033;-61
2021/01/01 05:31:38;;;;;;;46.58;26.20;;;0.80;99.90;;;;;;5059800;28;20063;-61
2021/01/01 05:34:04;;;;;;;45.55;27.17;;;0.70;99.90;;;;;;5054761;28;20033;-60
2021/01/01 05:36:45;;;;;;;47.15;26.05;;;0.70;99.90;;;;;;5062605;28;20359;-60
2021/01/01 05:39:14;;;;;;;51.33;27.48;;;0.70;99.90;;;;;;5054908;28;20021;-59
2021/01/01 05:41:42;;;;;;;48.95;26.50;;;0.70;99.90;;;;;;5062933;28;20042;-60
2021/01/01 05:44:10;;;;;;;47.45;26.33;;;0.60;99.90;;;;;;5074887;28;20028;-60
2021/01/01 05:46:37;;;;;;;48.80;25.73;;;0.60;99.90;;;;;;5059097;28;20063;-60
2021/01/01 05:49:03;;;;;;;50.38;27.05;;;0.50;99.90;;;;;;5054291;28;20032;-60
2021/01/01 05:51:29;;;;;;;49.17;28.02;;;0.60;99.90;;;;;;5061408;28;20028;-60
2021/01/01 05:54:11;;;;;;;47.20;26.23;;;0.60;99.90;;;;;;5054451;28;20402;-60
2021/01/01 05:56:40;;;;;;;44.17;25.52;;;0.70;99.90;;;;;;5059605;28;20032;-60
2021/01/01 05:59:10;;;;;;;48.92;27.35;;;0.80;99.90;;;;;;5054675;28;20040;-61
2021/01/01 06:01:40;;;;;;;46.67;26.95;;;0.70;99.90;;;;;;5059007;28;20025;-58
2021/01/01 06:04:05;;;;;;;45.78;26.33;;;0.70;99.90;;;;;;5054156;28;20079;-59
2021/01/01 06:06:34;;;;;;;49.22;27.00;;;0.70;99.90;;;;;;5053937;28;20450;-60
2021/01/01 06:09:10;;;;;;;50.42;27.10;;;0.70;99.90;;;;;;5054264;28;20025;-61
2021/01/01 06:11:37;;;;;;;50.60;28.83;;;0.70;99.90;;;;;;5053584;28;20224;-59
2021/01/01 06:14:04;;;;;;;47.58;25.77;;;0.70;99.90;;;;;;5054531;28;20041;-59
2021/01/01 06:16:40;;;;;;;46.13;28.20;;;0.70;99.90;;;;;;5053793;28;20040;-59
2021/01/01 06:19:11;;;;;;;49.83;28.23;;;0.70;99.90;;;;;;5054415;28;20463;-60
2021/01/01 06:21:41;;;;;;;49.33;26.85;;;0.80;99.90;;;;;;5068720;28;20032;-60
2021/01/01 06:24:14;;;;;;;51.33;28.17;;;0.80;99.90;;;;;;5068658;28;20052;-62
2021/01/01 06:26:42;;;;;;;50.38;28.00;;;0.70;99.90;;;;;;5065134;28;20028;-58
2021/01/01 06:29:08;;;;;;;50.13;28.05;;;0.80;99.90;;;;;;5054528;28;20459;-59
2021/01/01 06:31:34;;;;;;;49.50;27.23;;;0.80;99.90;;;;;;5062459;28;20107;-59
2021/01/01 06:34:00;;;;;;;45.05;25.77;;;0.80;99.90;;;;;;5073470;28;20343;-57
2021/01/01 06:36:38;;;;;;;47.72;26.60;;;0.80;99.90;;;;;;5072502;28;20021;-58
2021/01/01 06:39:04;;;;;;;48.65;26.13;;;0.90;99.90;;;;;;5070297;28;20107;-58
2021/01/01 06:41:47;;;;;;;45.85;25.63;;;0.90;99.90;;;;;;5053106;28;20037;-59
2021/01/01 06:44:42;;;;;;;46.72;26.38;;;0.80;99.90;;;;;;5053893;28;20035;-59
2021/01/01 06:47:43;;;;;;;48.03;24.92;;;0.80;99.90;;;;;;5052110;28;20356;-58
2021/01/01 06:50:29;;;;;;;50.90;26.77;;;0.80;99.90;;;;;;5060266;28;20482;-59
2021/01/01 06:53:12;;;;;;;55.17;25.52;;;0.90;99.90;;;;;;5072664;28;20017;-58
2021/01/01 06:55:46;;;;;;;46.40;24.25;;;0.90;99.90;;;;;;5070877;28;20037;-62
2021/01/01 06:58:12;;;;;;;53.35;25.40;;;0.80;99.90;;;;;;5058835;28;20078;-60
2021/01/01 07:00:50;;;;;;;52.53;24.92;;;0.90;99.90;;;;;;5069794;28;20028;-60
2021/01/01 07:03:33;;;;;;;53.25;26.13;;;0.90;99.90;;;;;;5052376;28;20060;-59
2021/01/01 07:06:02;;;;;;;52.17;25.55;;;0.90;99.90;;;;;;5054711;28;20055;-60
2021/01/01 07:08:42;;;;;;;54.70;27.63;;;0.80;99.90;;;;;;5052646;28;20032;-61
2021/01/01 07:11:11;;;;;;;51.40;24.63;;;0.90;99.90;;;;;;5053192;28;20055;-59
2021/01/01 07:13:42;;;;;;;53.13;26.55;;;0.80;99.90;;;;;;5053090;28;20029;-61
2021/01/01 07:16:08;;;;;;;55.35;25.75;;;0.90;99.90;;;;;;5058105;28;20105;-59
2021/01/01 07:18:34;;;;;;;52.80;26.33;;;0.90;99.90;;;;;;5070808;28;20036;-59
2021/01/01 07:21:01;;;;;;;56.83;25.48;;;0.90;99.90;;;;;;5072117;28;20025;-60
2021/01/01 07:23:30;;;;;;;69.30;32.63;;;0.90;99.90;;;;;;5072277;28;20028;-59
2021/01/01 07:25:56;;;;;;;61.03;28.05;;;0.90;99.90;;;;;;5073679;28;20017;-59
2021/01/01 07:28:26;;;;;;;54.47;27.33;;;1.00;99.90;;;;;;5072764;28;20428;-58
2021/01/01 07:30:52;;;;;;;58.70;26.55;;;1.00;99.90;;;;;;5074050;28;20510;-58
2021/01/01 07:36:59;;;;;;;62.42;27.73;;;1.00;99.90;;;;;;5073866;28;20043;-61
2021/01/01 07:39:28;;;;;;;58.72;29.70;;;1.10;99.90;;;;;;5073962;28;20064;-61
2021/01/01 07:45:16;;;;;;;61.72;28.92;;;1.00;99.90;;;;;;5073979;28;20024;-61
2021/01/01 07:47:47;;;;;;;58.88;28.23;;;1.10;99.90;;;;;;5073514;28;20028;-61
2021/01/01 07:50:18;;;;;;;70.68;30.88;;;1.10;99.90;;;;;;5072566;28;20366;-61
2021/01/01 07:56:08;;;;;;;61.63;30.13;;;1.20;99.90;;;;;;5072758;28;20039;-58
2021/01/01 07:58:35;;;;;;;60.88;28.73;;;1.20;99.90;;;;;;5070382;28;20032;-62
2021/01/01 08:01:10;;;;;;;58.53;28.20;;;1.20;99.90;;;;;;5064386;28;20036;-62
2021/01/01 08:03:37;;;;;;;;;;;1.20;99.90;;;;;;5052536;28;20367;-59
2021/01/01 08:06:04;;;;;;;57.60;27.33;;;1.20;99.90;;;;;;5052297;28;19901;-59
2021/01/01 08:08:29;;;;;;;57.45;29.25;;;1.30;99.90;;;;;;5052419;28;20091;-61
2021/01/01 08:10:57;;;;;;;56.38;27.38;;;1.30;99.90;;;;;;5052069;28;20051;-62
2021/01/01 08:13:28;;;;;;;59.38;28.08;;;1.30;99.90;;;;;;5065667;28;20466;-62
2021/01/01 08:16:09;;;;;;;56.53;29.35;;;1.30;99.90;;;;;;5070311;28;20020;-61
2021/01/01 08:18:34;;;;;;;54.90;26.65;;;1.40;99.90;;;;;;5050800;28;20021;-57
2021/01/01 08:21:02;;;;;;;54.75;26.65;;;1.50;99.90;;;;;;5060528;28;20016;-61
2021/01/01 08:23:39;;;;;;;55.42;27.90;;;1.50;99.90;;;;;;5064608;28;20028;-61
2021/01/01 08:26:07;;;;;;;58.08;29.02;;;1.40;99.90;;;;;;5061791;28;20021;-62
2021/01/01 08:28:35;;;;;;;59.47;29.67;;;1.50;99.90;;;;;;5050153;28;20498;-61
2021/01/01 08:31:07;;;;;;;63.80;30.92;;;1.40;99.90;;;;;;5052191;28;20091;-61
2021/01/01 08:33:43;;;;;;;64.78;30.20;;;1.50;99.90;;;;;;5054900;28;20016;-62
2021/01/01 08:36:11;;;;;;;65.05;31.02;;;1.50;99.90;;;;;;5055671;28;20052;-58
2021/01/01 08:38:39;;;;;;;65.22;29.95;;;1.50;99.90;;;;;;5058428;28;20525;-59
2021/01/01 08:41:05;;;;;;;57.88;30.98;;;1.50;99.90;;;;;;5058528;28;20020;-60
2021/01/01 08:43:31;;;;;;;66.78;30.08;;;1.50;99.90;;;;;;5070789;28;20025;-59
2021/01/01 08:45:58;;;;;;;67.63;31.90;;;1.50;99.90;;;;;;5068222;28;20025;-58
2021/01/01 08:48:28;;;;;;;59.00;30.10;;;1.60;99.90;;;;;;5060737;28;20517;-60
2021/01/01 08:50:55;;;;;;;69.20;34.42;;;1.60;99.90;;;;;;5068546;28;20310;-59
2021/01/01 08:53:21;;;;;;;71.07;31.20;;;1.70;99.90;;;;;;5057700;28;20039;-61
2021/01/01 08:56:00;;;;;;;72.68;32.75;;;1.70;99.90;;;;;;5060198;28;20032;-60
2021/01/01 08:58:26;;;;;;;68.57;33.90;;;1.70;99.90;;;;;;5071019;28;20477;-60
2021/01/01 09:00:52;;;;;;;75.28;36.00;;;1.70;99.90;;;;;;5055896;28;20036;-58
2021/01/01 09:03:22;;;;;;;74.03;33.42;;;1.70;99.90;;;;;;5064180;28;20020;-58
2021/01/01 09:05:54;;;;;;;72.55;34.28;;;1.70;99.90;;;;;;5052179;28;20455;-60
2021/01/01 09:08:24;;;;;;;74.22;32.92;;;1.70;99.90;;;;;;5059845;28;20117;-59
2021/01/01 09:10:54;;;;;;;85.63;36.38;;;1.70;99.90;;;;;;5052843;28;20206;-60
2021/01/01 09:13:26;;;;;;;77.10;36.15;;;1.70;99.90;;;;;;5051284;28;20021;-59
2021/01/01 09:16:09;;;;;;;85.63;38.65;;;1.80;99.90;;;;;;5062039;28;20363;-59
2021/01/01 09:18:35;;;;;;;83.82;37.00;;;1.80;99.90;;;;;;5057612;28;20071;-60
2021/01/01 09:21:14;;;;;;;76.20;34.83;;;1.70;99.90;;;;;;5055015;28;20374;-60
2021/01/01 09:23:41;;;;;;;80.35;37.38;;;1.80;99.90;;;;;;5072267;28;20032;-59
2021/01/01 09:26:08;;;;;;;76.50;33.45;;;1.80;99.90;;;;;;5062547;28;20028;-57
2021/01/01 09:28:35;;;;;;;81.32;37.53;;;1.80;99.90;;;;;;5069045;28;20032;-59
2021/01/01 09:31:01;;;;;;;86.00;35.70;;;1.80;99.90;;;;;;5070816;28;20016;-60
2021/01/01 09:33:27;;;;;;;77.25;37.20;;;1.90;99.90;;;;;;5069150;28;20401;-59
2021/01/01 09:35:53;;;;;;;84.30;37.53;;;1.90;99.90;;;;;;5066390;28;20021;-61
2021/01/01 09:38:19;;;;;;;83.35;34.75;;;2.00;99.90;;;;;;5057927;28;20017;-59
2021/01/01 09:40:45;;;;;;;75.85;36.80;;;2.00;99.90;;;;;;5074330;28;20025;-59
2021/01/01 09:43:11;;;;;;;85.03;36.58;;;2.00;99.90;;;;;;5073508;28;20032;-59
2021/01/01 09:45:38;;;;;;;81.20;36.22;;;2.00;99.90;;;;;;5070924;28;20032;-60
2021/01/01 09:48:05;;;;;;;86.47;37.10;;;2.00;99.90;;;;;;5059079;28;20029;-59
2021/01/01 09:50:31;;;;;;;84.75;36.70;;;2.00;99.90;;;;;;5068115;28;20142;-60
2021/01/01 09:52:57;;;;;;;87.30;37.60;;;2.10;99.90;;;;;;5069330;28;20485;-61
2021/01/01 09:55:23;;;;;;;90.38;37.50;;;2.10;99.90;;;;;;5067167;28;20032;-61
2021/01/01 09:57:48;;;;;;;84.80;37.60;;;2.20;99.90;;;;;;5059224;28;20112;-59
2021/01/01 10:00:16;;;;;;;84.90;36.50;;;2.20;99.90;;;;;;5054888;28;20427;-62
2021/01/01 10:02:43;;;;;;;82.78;35.88;;;2.20;99.90;;;;;;5070514;28;20078;-62
2021/01/01 10:05:10;;;;;;;79.65;35.80;;;2.20;99.90;;;;;;5074529;28;20085;-62
2021/01/01 10:07:36;;;;;;;82.43;37.08;;;2.20;99.90;;;;;;5060257;28;20037;-61
2021/01/01 10:10:04;;;;;;;83.35;36.20;;;2.30;99.90;;;;;;5054117;28;20053;-61
2021/01/01 10:12:30;;;;;;;87.35;37.00;;;2.30;99.90;;;;;;5072353;28;20315;-57
2021/01/01 10:14:57;;;;;;;89.50;35.85;;;2.30;99.90;;;;;;5060864;28;20079;-57
2021/01/01 10:17:28;;;;;;;89.32;37.05;;;2.30;99.90;;;;;;5073511;28;20029;-62
2021/01/01 10:19:54;;;;;;;86.60;39.72;;;2.40;99.90;;;;;;5072050;28;20044;-61
2021/01/01 10:22:21;;;;;;;88.43;38.70;;;2.40;99.90;;;;;;5054608;28;20040;-61
2021/01/01 10:24:47;;;;;;;89.95;37.78;;;2.40;99.90;;;;;;5054857;28;20079;-59
2021/01/01 10:27:14;;;;;;;91.55;38.08;;;2.50;99.90;;;;;;5056049;28;20024;-61
2021/01/01 10:29:41;;;;;;;87.72;36.15;;;2.50;99.90;;;;;;5059520;28;20029;-59
2021/01/01 10:32:08;;;;;;;84.53;38.10;;;2.50;99.90;;;;;;5057205;28;20090;-59
2021/01/01 10:34:34;;;;;;;84.65;36.58;;;2.50;99.90;;;;;;5059535;28;20051;-60
2021/01/01 10:37:00;;;;;;;80.53;36.85;;;2.50;99.90;;;;;;5073299;28;20466;-61
2021/01/01 10:39:26;;;;;;;86.80;37.55;;;2.60;99.90;;;;;;5061340;28;20040;-61
2021/01/01 10:41:52;;;;;;;85.45;36.42;;;2.60;99.90;;;;;;5066296;28;20051;-59
2021/01/01 10:44:18;;;;;;;82.07;35.65;;;2.60;99.90;;;;;;5060000;28;20385;-59
2021/01/01 10:46:52;;;;;;;82.30;37.58;;;2.60;99.90;;;;;;5072732;28;20040;-60
2021/01/01 10:49:19;;;;;;;83.13;36.70;;;2.60;99.90;;;;;;5072375;28;20414;-58
2021/01/01 10:51:45;;;;;;;86.78;36.17;;;2.60;99.90;;;;;;5072494;28;20037;-59
2021/01/01 10:54:11;;;;;;;80.28;37.47;;;2.60;99.90;;;;;;5079758;28;20112;-61
2021/01/01 10:56:37;;;;;;;94.35;38.65;;;2.70;99.90;;;;;;5064526;28;20474;-61
2021/01/01 10:59:02;;;;;;;80.18;34.22;;;2.70;99.90;;;;;;5066133;28;20020;-61
2021/01/01 11:01:28;;;;;;;83.80;34.67;;;2.70;99.90;;;;;;5067910;28;20037;-60
2021/01/01 11:03:54;;;;;;;78.45;34.10;;;2.80;99.90;;;;;;5055425;28;20074;-60
2021/01/01 11:06:20;;;;;;;73.68;33.83;;;2.90;99.90;;;;;;5069118;28;20480;-60
2021/01/01 11:08:47;;;;;;;78.13;34.63;;;2.90;99.90;;;;;;5069773;28;20021;-60
2021/01/01 11:11:14;;;;;;;83.93;35.10;;;2.80;99.90;;;;;;5062402;28;20047;-60
2021/01/01 11:13:53;;;;;;;73.78;33.42;;;2.90;99.90;;;;;;5065938;28;20504;-62
2021/01/01 12:25:20;;;;;;;75.45;39.28;;;3.50;99.90;;;;;;5064127;28;20082;-59
2021/01/01 12:27:48;;;;;;;61.85;31.67;;;3.50;99.90;;;;;;5052140;28;20063;-58
2021/01/01 12:30:15;;;;;;;60.30;31.08;;;3.50;99.90;;;;;;5062979;28;20430;-60
2021/01/01 12:32:42;;;;;;;71.10;30.40;;;3.50;99.90;;;;;;5053718;28;20104;-57
2021/01/01 12:35:09;;;;;;;51.92;24.90;;;3.50;99.90;;;;;;5069063;28;20031;-58
2021/01/01 12:37:37;;;;;;;63.58;27.90;;;3.50;99.90;;;;;;5071785;28;20032;-59
2021/01/01 12:40:04;;;;;;;50.63;23.88;;;3.60;99.90;;;;;;5070388;28;20104;-58
2021/01/01 12:42:30;;;;;;;54.30;25.10;;;3.70;99.90;;;;;;5071176;28;20038;-58
2021/01/01 12:44:56;;;;;;;55.40;24.60;;;3.60;99.90;;;;;;5062903;28;20016;-60
2021/01/01 12:47:21;;;;;;;48.85;23.73;;;3.60;99.90;;;;;;5054628;28;20052;-60
2021/01/01 12:49:47;;;;;;;47.40;23.52;;;3.70;99.90;;;;;;5055907;28;20029;-57
2021/01/01 12:52:13;;;;;;;47.53;21.33;;;3.70;99.90;;;;;;5058318;28;20028;-60
2021/01/01 12:54:39;;;;;;;46.63;23.67;;;3.70;99.90;;;;;;5052166;28;20029;-58
2021/01/01 12:57:05;;;;;;;52.17;21.58;;;3.70;99.90;;;;;;5053643;28;20083;-58
2021/01/01 12:59:31;;;;;;;50.67;23.98;;;3.70;99.90;;;;;;5063836;28;20025;-59
2021/01/01 13:01:56;;;;;;;43.53;21.35;;;3.80;99.90;;;;;;5069704;28;20029;-60
2021/01/01 13:04:22;;;;;;;54.67;23.08;;;3.80;99.90;;;;;;5058316;28;20032;-59
2021/01/01 13:06:48;;;;;;;42.35;20.35;;;3.80;99.90;;;;;;5065812;28;20017;-59
2021/01/01 13:09:14;;;;;;;46.03;21.38;;;3.90;99.90;;;;;;5059313;28;20445;-58
2021/01/01 13:11:46;;;;;;;42.70;21.63;;;3.90;99.90;;;;;;5070641;28;20041;-57
2021/01/01 13:14:15;;;;;;;44.92;21.50;;;3.90;99.90;;;;;;5056312;28;20061;-58
2021/01/01 13:16:43;;;;;;;47.42;20.90;;;4.00;99.90;;;;;;5055632;28;20048;-60
2021/01/01 13:19:10;;;;;;;48.38;21.20;;;4.00;99.90;;;;;;5065714;28;20037;-59
2021/01/01 13:21:38;;;;;;;48.90;22.38;;;4.00;99.90;;;;;;5061393;28;20036;-59
2021/01/01 13:24:05;;;;;;;44.63;19.77;;;4.00;99.90;;;;;;5056364;28;20424;-59
2021/01/01 13:26:32;;;;;;;39.20;19.40;;;4.00;99.90;;;;;;5055958;28;20633;-60
2021/01/01 13:28:59;;;;;;;44.80;20.17;;;4.10;99.90;;;;;;5055515;28;20097;-59
2021/01/01 13:31:39;;;;;;;41.67;19.60;;;4.10;99.90;;;;;;5058726;28;20036;-59
2021/01/01 13:34:06;;;;;;;40.85;18.80;;;4.10;99.90;;;;;;5061209;28;20106;-59
2021/01/01 13:36:32;;;;;;;45.85;18.85;;;4.10;99.90;;;;;;5058951;28;20033;-58
2021/01/01 13:38:58;;;;;;;47.35;20.33;;;4.10;99.90;;;;;;5064382;28;20377;-58
2021/01/01 13:41:23;;;;;;;49.45;20.10;;;4.20;99.90;;;;;;5061296;28;20040;-59
2021/01/01 13:43:51;;;;;;;40.35;18.48;;;4.10;99.90;;;;;;5067272;28;20051;-59
2021/01/01 13:46:32;;;;;;;42.00;18.40;;;4.10;99.90;;;;;;5060877;28;20032;-59
2021/01/01 13:48:59;;;;;;;50.22;23.42;;;4.10;99.90;;;;;;5067813;28;20069;-59
2021/01/01 13:51:34;;;;;;;40.67;18.27;;;4.20;99.90;;;;;;5072318;28;20111;-59
2021/01/01 13:54:01;;;;;;;73.43;40.10;;;4.20;99.90;;;;;;5062877;28;20064;-60
2021/01/01 13:56:27;;;;;;;66.55;37.60;;;4.20;99.90;;;;;;5067218;28;20434;-60
2021/01/01 13:58:53;;;;;;;74.85;39.30;;;4.20;99.90;;;;;;5062356;28;20020;-59
2021/01/01 14:01:20;;;;;;;46.97;25.58;;;4.30;99.90;;;;;;5061862;28;20024;-58